Time;durP1;ratioP1;P1;durP2;ratioP2;P2;SDS_P1;SDS_P2;PMS_P1;PMS_P2;Temp;Humidity;BMP_temperature;BMP_pressure;BME280_temperature;BME280_humidity;BME280_pressure;Samples;Min_cycle;Max_cycle;Signal;HPM_P1;HPM_P2
2021/03/23 00:00:40;;;;;;;12.27;7.83;;;7.30;81.00;;;;;;5053087;28;20026;-75
2021/03/23 00:03:08;;;;;;;11.97;7.33;;;7.30;81.20;;;;;;5051915;28;20021;-76
2021/03/23 00:05:33;;;;;;;11.70;7.63;;;7.30;81.20;;;;;;5052870;28;20029;-73
2021/03/23 00:07:59;;;;;;;12.73;8.77;;;7.30;81.20;;;;;;5035472;28;20032;-73
2021/03/23 00:10:27;;;;;;;13.27;7.10;;;7.30;81.30;;;;;;5035457;28;20040;-74
2021/03/23 00:12:53;;;;;;;11.30;6.77;;;7.30;81.30;;;;;;5053067;28;20100;-74
2021/03/23 00:15:21;;;;;;;16.87;8.57;;;7.30;81.30;;;;;;5051706;28;20033;-73
2021/03/23 00:17:48;;;;;;;11.37;7.63;;;7.30;81.40;;;;;;5052955;28;20043;-74
2021/03/23 00:20:17;;;;;;;12.30;7.73;;;7.30;81.50;;;;;;5055695;28;20112;-73
2021/03/23 00:22:43;;;;;;;12.07;7.80;;;7.30;81.60;;;;;;5058794;28;20489;-74
2021/03/23 00:25:10;;;;;;;12.57;7.83;;;7.30;81.60;;;;;;5075586;28;20123;-74
2021/03/23 00:27:37;;;;;;;14.80;7.77;;;7.40;81.50;;;;;;5076970;28;20021;-73
2021/03/23 00:30:09;;;;;;;15.07;8.27;;;7.40;81.50;;;;;;5076819;28;20103;-74
2021/03/23 00:32:34;;;;;;;15.60;8.57;;;7.40;81.20;;;;;;5076621;28;20104;-73
2021/03/23 00:35:00;;;;;;;14.23;8.27;;;7.40;81.00;;;;;;5042113;28;20158;-73
2021/03/23 00:37:26;;;;;;;14.43;8.37;;;7.40;80.90;;;;;;5058811;28;20021;-73
2021/03/23 00:39:52;;;;;;;13.37;8.17;;;7.40;80.90;;;;;;5073649;28;20414;-73
2021/03/23 00:42:18;;;;;;;15.20;8.50;;;7.40;80.80;;;;;;5061937;28;20396;-74
2021/03/23 00:44:45;;;;;;;13.20;8.03;;;7.30;80.90;;;;;;5055479;28;20064;-73
2021/03/23 00:52:18;;;;;;;13.83;7.70;;;7.30;80.90;;;;;;5016341;28;20513;-89
2021/03/23 00:54:44;;;;;;;13.73;8.57;;;7.30;80.90;;;;;;5019258;28;20109;-89
2021/03/23 00:57:10;;;;;;;13.47;8.60;;;7.30;80.80;;;;;;5035876;28;20033;-89
2021/03/23 00:59:36;;;;;;;12.97;8.03;;;7.30;80.80;;;;;;5036386;28;20413;-88
2021/03/23 01:02:01;;;;;;;13.93;8.03;;;7.40;80.90;;;;;;5020013;28;20033;-89
2021/03/23 01:04:27;;;;;;;14.93;8.23;;;7.30;80.90;;;;;;5032755;28;20029;-89
2021/03/23 01:06:53;;;;;;;13.37;7.63;;;7.30;80.90;;;;;;5001984;28;20030;-89
2021/03/23 01:09:18;;;;;;;13.20;7.30;;;7.30;80.80;;;;;;5002213;28;20026;-89
2021/03/23 01:11:44;;;;;;;14.43;8.53;;;7.30;80.70;;;;;;5026305;28;20056;-89
2021/03/23 01:14:10;;;;;;;11.83;7.13;;;7.30;80.60;;;;;;5036752;28;20034;-88
2021/03/23 01:16:36;;;;;;;13.07;7.50;;;7.30;80.60;;;;;;5019420;28;20567;-88
2021/03/23 01:19:01;;;;;;;13.90;7.97;;;7.30;80.50;;;;;;5019276;28;20497;-90
2021/03/23 01:21:27;;;;;;;10.37;6.67;;;7.30;80.40;;;;;;5020293;28;20037;-89
2021/03/23 01:23:53;;;;;;;13.37;6.90;;;7.30;80.30;;;;;;5019574;28;20331;-89
2021/03/23 01:26:19;;;;;;;10.93;6.47;;;7.30;80.20;;;;;;5020163;28;20037;-87
2021/03/23 01:28:44;;;;;;;10.77;6.33;;;7.30;80.20;;;;;;5037204;28;20524;-88
2021/03/23 01:31:10;;;;;;;12.47;6.77;;;7.30;80.10;;;;;;5018942;28;20532;-87
2021/03/23 01:33:36;;;;;;;12.87;6.77;;;7.30;80.00;;;;;;5003093;28;20026;-87
2021/03/23 01:36:01;;;;;;;13.00;6.97;;;7.30;79.90;;;;;;5037278;28;20029;-87
2021/03/23 01:38:27;;;;;;;11.33;6.47;;;7.30;79.80;;;;;;5035863;28;20037;-90
2021/03/23 01:40:52;;;;;;;11.67;6.57;;;7.30;79.90;;;;;;5001730;28;20025;-88
2021/03/23 01:43:25;;;;;;;12.07;6.63;;;7.30;79.80;;;;;;5036012;28;20041;-90
2021/03/23 01:45:51;;;;;;;12.27;6.90;;;7.30;79.90;;;;;;5036546;28;20479;-92
2021/03/23 01:48:23;;;;;;;14.20;6.67;;;7.20;79.80;;;;;;5003002;28;20029;-90
2021/03/23 01:50:52;;;;;;;13.70;7.27;;;7.20;79.60;;;;;;5019032;28;20107;-89
2021/03/23 01:53:40;;;;;;;11.40;6.77;;;7.20;79.60;;;;;;5018667;28;20056;-90
2021/03/23 01:56:07;;;;;;;13.97;6.03;;;7.20;79.60;;;;;;5018271;28;20032;-89
2021/03/23 01:58:36;;;;;;;11.87;6.93;;;7.20;79.70;;;;;;5019197;28;20080;-88
2021/03/23 02:01:03;;;;;;;11.30;7.00;;;7.20;79.70;;;;;;5018810;28;20065;-89
2021/03/23 02:03:29;;;;;;;10.90;7.13;;;7.20;79.80;;;;;;5002738;28;20111;-90
2021/03/23 02:05:59;;;;;;;13.27;6.47;;;7.20;79.80;;;;;;4999385;28;20089;-91
2021/03/23 02:08:27;;;;;;;11.33;7.30;;;7.10;79.90;;;;;;5016096;28;20029;-85
2021/03/23 02:10:54;;;;;;;16.63;8.27;;;7.10;79.90;;;;;;5015545;28;20025;-87
2021/03/23 02:13:20;;;;;;;12.63;8.23;;;7.10;79.90;;;;;;5026286;28;20090;-87
2021/03/23 02:15:46;;;;;;;13.90;8.10;;;7.10;79.90;;;;;;5001834;28;20108;-86
2021/03/23 02:18:22;;;;;;;16.80;9.80;;;7.00;80.00;;;;;;5001470;28;20129;-87
2021/03/23 02:21:08;;;;;;;14.07;8.70;;;7.10;80.20;;;;;;5017419;28;20017;-86
2021/03/23 02:23:42;;;;;;;16.13;8.27;;;7.10;80.20;;;;;;5035584;28;20482;-86
2021/03/23 02:26:12;;;;;;;13.40;8.17;;;7.00;80.20;;;;;;5017470;28;20048;-85
2021/03/23 02:28:53;;;;;;;16.47;9.27;;;7.10;80.40;;;;;;5035801;28;20029;-88
2021/03/23 02:31:24;;;;;;;17.00;9.23;;;7.10;80.40;;;;;;5019483;28;20025;-88
2021/03/23 02:33:50;;;;;;;14.93;9.53;;;7.10;80.50;;;;;;5036791;28;20023;-89
2021/03/23 02:36:15;;;;;;;15.20;9.87;;;7.10;80.50;;;;;;5018495;28;20120;-89
2021/03/23 02:38:41;;;;;;;15.50;9.23;;;7.10;80.70;;;;;;5018030;28;20033;-87
2021/03/23 02:41:07;;;;;;;17.27;10.30;;;7.10;80.60;;;;;;5001090;28;20036;-86
2021/03/23 02:43:32;;;;;;;17.23;10.60;;;7.10;80.70;;;;;;5000571;28;20029;-87
2021/03/23 02:45:58;;;;;;;17.17;11.20;;;7.30;80.90;;;;;;4997464;28;20042;-85
2021/03/23 02:48:24;;;;;;;20.30;11.37;;;7.20;80.80;;;;;;5031020;28;20049;-86
2021/03/23 02:50:51;;;;;;;20.43;11.67;;;7.20;80.90;;;;;;5033657;28;20028;-86
2021/03/23 02:53:17;;;;;;;17.83;11.20;;;7.20;80.80;;;;;;5034615;28;20402;-87
2021/03/23 02:55:45;;;;;;;17.90;11.13;;;7.10;80.90;;;;;;5017186;28;20037;-86
2021/03/23 02:58:11;;;;;;;20.87;11.63;;;7.20;81.10;;;;;;5017435;28;20065;-86
2021/03/23 03:00:36;;;;;;;22.33;11.63;;;7.10;81.10;;;;;;5017380;28;20049;-88
2021/03/23 03:03:02;;;;;;;24.80;12.07;;;7.30;81.30;;;;;;5016771;28;20037;-89
2021/03/23 03:05:28;;;;;;;20.47;12.63;;;7.20;81.20;;;;;;5000801;28;20045;-88
2021/03/23 03:07:54;;;;;;;23.77;13.20;;;7.20;81.10;;;;;;5001078;28;20029;-89
2021/03/23 03:10:19;;;;;;;22.00;12.37;;;7.20;81.20;;;;;;5001084;28;20030;-88
2021/03/23 03:12:45;;;;;;;19.67;12.80;;;7.10;81.10;;;;;;5016944;28;20021;-89
2021/03/23 03:15:11;;;;;;;19.83;11.97;;;7.20;81.30;;;;;;5017559;28;20021;-87
2021/03/23 03:17:37;;;;;;;22.33;13.23;;;7.20;81.30;;;;;;5016723;28;20490;-88
2021/03/23 03:20:05;;;;;;;20.20;13.33;;;7.20;81.30;;;;;;5000818;28;20045;-88
2021/03/23 03:22:30;;;;;;;22.33;13.43;;;7.20;81.20;;;;;;5034513;28;20052;-89
2021/03/23 03:24:56;;;;;;;24.20;13.67;;;7.30;81.30;;;;;;5017417;28;20394;-92
2021/03/23 03:27:22;;;;;;;26.77;15.10;;;7.30;81.40;;;;;;5018033;28;20026;-91
2021/03/23 03:29:47;;;;;;;27.80;15.47;;;7.20;81.20;;;;;;5018013;28;20045;-90
2021/03/23 03:32:13;;;;;;;24.97;15.10;;;7.20;81.20;;;;;;5017155;28;20021;-92
2021/03/23 03:34:39;;;;;;;26.47;15.67;;;7.20;81.20;;;;;;5016609;28;20116;-91
2021/03/23 03:37:05;;;;;;;26.07;16.63;;;7.20;81.20;;;;;;5000970;28;20061;-91
2021/03/23 03:39:30;;;;;;;26.50;16.33;;;7.20;81.20;;;;;;5000551;28;20120;-90
2021/03/23 03:41:56;;;;;;;27.87;16.80;;;7.10;81.10;;;;;;5034488;28;20060;-91
2021/03/23 03:44:21;;;;;;;25.07;15.97;;;7.20;81.10;;;;;;5001043;28;20462;-91
2021/03/23 03:46:47;;;;;;;27.40;17.87;;;7.20;81.20;;;;;;5036291;28;20040;-89
2021/03/23 03:49:13;;;;;;;28.23;18.07;;;7.20;81.10;;;;;;5002429;28;20053;-90
2021/03/23 03:51:38;;;;;;;29.10;17.43;;;7.20;81.10;;;;;;5033246;28;20087;-91
2021/03/23 03:54:05;;;;;;;31.43;18.23;;;7.20;81.00;;;;;;4999564;28;20064;-89
2021/03/23 03:56:31;;;;;;;30.73;19.03;;;7.20;81.00;;;;;;5016640;28;20030;-91
2021/03/23 03:58:56;;;;;;;26.27;16.27;;;7.20;81.00;;;;;;5016715;28;20103;-90
2021/03/23 04:01:22;;;;;;;32.50;20.00;;;7.20;80.90;;;;;;5033006;28;20544;-91
2021/03/23 04:03:48;;;;;;;33.63;20.97;;;7.20;80.80;;;;;;5016827;28;20037;-90
2021/03/23 04:06:14;;;;;;;36.63;20.27;;;7.20;80.80;;;;;;5014671;28;20506;-89
2021/03/23 04:08:41;;;;;;;30.60;19.27;;;7.20;80.80;;;;;;5033392;28;20045;-90
2021/03/23 04:11:08;;;;;;;30.47;18.93;;;7.10;80.70;;;;;;5016640;28;20048;-90
2021/03/23 04:13:33;;;;;;;28.67;19.17;;;7.10;80.70;;;;;;5017124;28;20040;-90
2021/03/23 04:16:00;;;;;;;28.67;19.07;;;7.10;80.80;;;;;;5032836;28;20030;-90
2021/03/23 04:18:27;;;;;;;29.83;18.50;;;7.10;80.80;;;;;;5016415;28;20056;-88
2021/03/23 04:20:55;;;;;;;30.03;18.80;;;7.10;80.80;;;;;;5034035;28;20035;-88
2021/03/23 04:23:26;;;;;;;33.07;19.77;;;7.10;81.00;;;;;;5024631;28;20022;-88
2021/03/23 04:25:52;;;;;;;30.20;18.70;;;7.10;81.00;;;;;;4996435;28;20042;-87
2021/03/23 04:28:18;;;;;;;29.53;18.83;;;7.10;81.00;;;;;;5014071;28;20037;-89
2021/03/23 04:30:44;;;;;;;28.43;18.97;;;7.10;81.00;;;;;;4980579;28;20433;-89
2021/03/23 04:33:10;;;;;;;30.70;19.30;;;7.10;81.00;;;;;;4996900;28;20548;-89
2021/03/23 04:35:42;;;;;;;31.43;19.03;;;7.10;81.10;;;;;;4996634;28;20052;-89
2021/03/23 04:38:10;;;;;;;29.63;18.47;;;7.10;81.10;;;;;;5014097;28;20073;-89
2021/03/23 04:40:36;;;;;;;31.43;19.77;;;7.20;81.20;;;;;;4993306;28;20033;-90
2021/03/23 04:43:03;;;;;;;29.57;18.30;;;7.10;81.10;;;;;;4977633;28;20038;-91
2021/03/23 04:45:28;;;;;;;32.73;20.83;;;7.10;81.20;;;;;;4993439;28;20038;-90
2021/03/23 04:47:54;;;;;;;35.27;20.43;;;7.20;81.20;;;;;;4961271;28;20034;-89
2021/03/23 04:50:20;;;;;;;29.70;18.17;;;7.10;81.20;;;;;;4993914;28;20486;-89
2021/03/23 04:52:45;;;;;;;30.00;18.53;;;7.10;81.20;;;;;;4980355;28;20045;-90
2021/03/23 04:55:12;;;;;;;31.53;19.90;;;7.10;81.30;;;;;;5012455;28;20041;-90
2021/03/23 04:57:38;;;;;;;29.30;18.93;;;7.10;81.30;;;;;;5030570;28;20030;-90
2021/03/23 05:00:06;;;;;;;33.77;19.57;;;7.10;81.30;;;;;;5033669;28;20105;-90
2021/03/23 05:02:32;;;;;;;30.57;19.13;;;7.10;81.40;;;;;;5025937;28;20508;-89
2021/03/23 05:04:57;;;;;;;29.50;19.13;;;7.10;81.40;;;;;;5015634;28;20049;-87
2021/03/23 05:07:23;;;;;;;31.03;19.47;;;7.10;81.40;;;;;;5018746;28;20026;-89
2021/03/23 05:09:50;;;;;;;32.07;20.50;;;7.00;81.40;;;;;;5037325;28;20032;-89
2021/03/23 05:12:15;;;;;;;31.20;19.13;;;7.00;81.40;;;;;;5014979;28;20030;-89
2021/03/23 05:14:41;;;;;;;31.10;19.33;;;7.00;81.50;;;;;;5032483;28;20037;-90
2021/03/23 05:17:08;;;;;;;32.10;19.57;;;7.00;81.60;;;;;;4999273;28;20038;-92
2021/03/23 05:19:33;;;;;;;31.63;19.40;;;7.00;81.70;;;;;;5031077;28;20459;-90
2021/03/23 05:21:59;;;;;;;30.97;19.20;;;7.00;81.70;;;;;;5019494;28;20037;-89
2021/03/23 05:24:24;;;;;;;31.90;20.03;;;7.10;81.90;;;;;;4999080;28;20049;-90
2021/03/23 05:26:50;;;;;;;35.90;20.23;;;7.00;81.90;;;;;;4999252;28;20034;-89
2021/03/23 05:29:16;;;;;;;32.03;19.27;;;7.00;81.90;;;;;;5007675;28;20029;-89
2021/03/23 05:31:41;;;;;;;31.70;19.17;;;7.00;82.10;;;;;;5019339;28;20423;-90
2021/03/23 05:34:07;;;;;;;28.93;18.83;;;7.00;82.10;;;;;;5036504;28;20033;-89
2021/03/23 05:36:33;;;;;;;30.70;18.40;;;7.00;82.20;;;;;;5003084;28;20421;-91
2021/03/23 05:38:58;;;;;;;31.70;19.00;;;6.90;82.20;;;;;;5019149;28;20032;-91
2021/03/23 05:41:31;;;;;;;33.13;20.07;;;7.00;82.30;;;;;;5003001;28;20466;-90
2021/03/23 05:44:10;;;;;;;31.07;19.43;;;6.90;82.20;;;;;;5017828;28;20018;-90
2021/03/23 05:46:38;;;;;;;33.43;18.47;;;6.90;82.20;;;;;;5037797;28;20083;-91
2021/03/23 05:49:31;;;;;;;33.93;19.40;;;6.90;82.40;;;;;;5011716;28;20022;-90
2021/03/23 05:52:23;;;;;;;33.50;19.90;;;6.80;82.30;;;;;;5014384;28;20026;-89
2021/03/23 05:54:58;;;;;;;33.47;20.13;;;6.80;82.30;;;;;;5007302;28;20139;-89
2021/03/23 05:57:31;;;;;;;32.37;19.00;;;6.80;82.30;;;;;;5016736;28;20045;-95
2021/03/23 06:00:08;;;;;;;34.83;19.20;;;6.80;82.40;;;;;;5018153;28;20018;-90
2021/03/23 06:03:04;;;;;;;31.67;20.03;;;6.80;82.60;;;;;;5028327;28;20104;-89
2021/03/23 06:05:37;;;;;;;34.83;19.83;;;6.70;82.50;;;;;;5025506;28;20041;-91
2021/03/23 06:08:06;;;;;;;34.03;20.13;;;6.70;82.70;;;;;;5025912;28;20076;-91
2021/03/23 06:10:32;;;;;;;32.77;20.23;;;6.60;82.60;;;;;;5032667;28;20025;-92
2021/03/23 06:13:27;;;;;;;35.10;20.13;;;6.70;83.30;;;;;;5042744;28;20057;-88
2021/03/23 06:15:56;;;;;;;;;;;6.60;82.80;;;;;;5019081;28;20025;-90
2021/03/23 06:18:29;;;;;;;33.37;18.00;;;6.60;83.10;;;;;;5015080;28;19916;-85
2021/03/23 06:21:11;;;;;;;32.75;19.05;;;6.50;82.70;;;;;;5014881;28;20454;-89
2021/03/23 06:23:55;;;;;;;33.63;18.07;;;6.50;82.80;;;;;;5018251;28;20027;-87
2021/03/23 06:26:38;;;;;;;32.15;17.90;;;6.60;82.90;;;;;;5019676;28;20041;-88
2021/03/23 06:29:29;;;;;;;30.93;17.93;;;6.50;82.90;;;;;;5036619;28;20017;-87
2021/03/23 06:32:22;;;;;;;32.97;18.03;;;6.50;83.20;;;;;;5035615;28;20378;-86
2021/03/23 06:34:54;;;;;;;34.60;19.17;;;6.50;83.30;;;;;;5036315;28;20061;-88
2021/03/23 06:37:37;;;;;;;32.97;18.80;;;6.50;83.50;;;;;;5025092;28;20032;-86
2021/03/23 06:40:17;;;;;;;32.63;17.23;;;6.50;83.60;;;;;;5023938;28;20038;-87
2021/03/23 06:42:46;;;;;;;32.47;17.93;;;6.60;83.60;;;;;;5040147;28;20055;-88
2021/03/23 06:45:32;;;;;;;32.40;17.50;;;6.60;83.70;;;;;;5022422;28;20505;-88
2021/03/23 06:48:20;;;;;;;34.63;19.07;;;6.60;83.90;;;;;;5041742;28;20030;-88
2021/03/23 06:50:46;;;;;;;30.20;18.27;;;6.60;84.00;;;;;;5012682;28;20114;-89
2021/03/23 06:53:20;;;;;;;29.37;17.23;;;6.60;84.10;;;;;;5024141;28;20056;-86
2021/03/23 06:55:46;;;;;;;;;;;6.70;84.00;;;;;;5025077;28;20109;-89
2021/03/23 06:58:24;;;;;;;34.10;19.67;;;6.70;84.20;;;;;;5022715;28;19912;-88
2021/03/23 07:01:35;;;;;;;44.10;22.33;;;6.70;84.10;;;;;;5021850;28;20047;-88
2021/03/23 07:04:27;;;;;;;35.97;19.50;;;6.70;84.20;;;;;;4939129;29;20050;-87
2021/03/23 07:07:06;;;;;;;35.93;19.70;;;6.80;84.30;;;;;;4954932;29;20043;-88
2021/03/23 07:09:32;;;;;;;45.43;21.33;;;6.80;84.50;;;;;;4992746;28;20139;-87
2021/03/23 07:12:05;;;;;;;35.30;21.30;;;6.90;84.90;;;;;;5010318;28;20493;-88
2021/03/23 07:14:38;;;;;;;44.07;22.73;;;7.00;84.80;;;;;;4998422;28;20049;-88
2021/03/23 07:17:13;;;;;;;38.85;21.38;;;7.10;84.90;;;;;;5017551;28;20022;-89
2021/03/23 07:19:51;;;;;;;44.93;24.73;;;7.10;84.80;;;;;;5013464;28;20032;-88
2021/03/23 07:22:22;;;;;;;44.73;23.77;;;7.10;85.00;;;;;;4997481;28;20022;-88
2021/03/23 07:24:58;;;;;;;41.57;22.73;;;7.20;85.00;;;;;;5008326;28;20042;-88
2021/03/23 07:27:27;;;;;;;41.13;23.30;;;7.20;85.10;;;;;;4996986;28;20092;-88
2021/03/23 07:30:29;;;;;;;45.43;24.13;;;7.20;85.20;;;;;;5012750;28;20021;-88
2021/03/23 07:33:01;;;;;;;47.27;25.67;;;7.30;85.40;;;;;;5012829;28;20121;-88
2021/03/23 07:35:35;;;;;;;39.57;22.60;;;7.30;85.80;;;;;;4996712;28;20025;-90
2021/03/23 07:38:34;;;;;;;41.87;23.07;;;7.40;85.80;;;;;;5013856;28;20021;-89
2021/03/23 07:41:01;;;;;;;41.60;23.13;;;7.50;85.90;;;;;;5013778;28;20064;-90
2021/03/23 07:43:47;;;;;;;48.13;25.13;;;7.60;85.90;;;;;;5013749;28;20025;-89
2021/03/23 07:46:31;;;;;;;55.93;28.57;;;7.60;85.80;;;;;;5013277;28;20099;-88
2021/03/23 07:49:20;;;;;;;51.20;26.38;;;7.70;85.80;;;;;;5014966;28;20037;-90
2021/03/23 07:51:54;;;;;;;57.57;30.43;;;7.80;85.60;;;;;;5013795;28;20513;-89
2021/03/23 07:54:23;;;;;;;54.40;31.87;;;7.90;85.70;;;;;;5015536;28;20046;-86
2021/03/23 07:56:58;;;;;;;72.93;39.67;;;7.90;85.60;;;;;;5015687;28;20029;-86
2021/03/23 07:59:57;;;;;;;84.27;43.83;;;8.00;85.90;;;;;;5017417;28;20053;-88
2021/03/23 08:02:23;;;;;;;79.93;40.97;;;8.00;86.00;;;;;;5014282;28;20046;-86
2021/03/23 08:05:09;;;;;;;79.63;41.87;;;8.00;86.00;;;;;;5032615;28;20040;-85
2021/03/23 08:08:02;;;;;;;80.17;41.27;;;8.10;86.10;;;;;;5015118;28;20025;-84
2021/03/23 08:10:47;;;;;;;65.13;38.73;;;8.00;85.70;;;;;;5015908;28;20036;-88
2021/03/23 08:13:22;;;;;;;71.00;39.23;;;8.00;85.60;;;;;;5033040;28;20022;-87
2021/03/23 08:16:16;;;;;;;61.37;35.97;;;8.00;85.70;;;;;;5033443;28;20029;-86
2021/03/23 08:19:01;;;;;;;70.38;36.78;;;8.00;85.90;;;;;;5028193;28;20467;-89
2021/03/23 08:22:09;;;;;;;66.13;36.83;;;8.10;85.90;;;;;;5015954;28;20025;-84
2021/03/23 08:24:43;;;;;;;72.93;39.53;;;8.10;85.90;;;;;;5032824;28;20030;-86
2021/03/23 08:27:17;;;;;;;70.57;38.30;;;8.10;86.00;;;;;;5033789;28;20021;-88
2021/03/23 08:30:02;;;;;;;65.60;38.57;;;8.10;86.00;;;;;;5016568;28;20036;-85
2021/03/23 08:32:28;;;;;;;74.37;40.00;;;8.10;86.20;;;;;;5015631;28;20033;-87
2021/03/23 08:35:18;;;;;;;78.10;40.23;;;8.10;86.40;;;;;;5033336;28;20036;-87
2021/03/23 08:38:02;;;;;;;83.17;41.77;;;8.10;86.50;;;;;;5015537;28;20486;-88
2021/03/23 08:41:03;;;;;;;70.07;39.63;;;8.10;86.40;;;;;;5016293;28;20028;-83
2021/03/23 08:43:35;;;;;;;65.03;37.93;;;8.10;86.30;;;;;;5018676;28;20018;-84
2021/03/23 08:46:04;;;;;;;75.77;40.50;;;8.20;86.40;;;;;;5036217;28;20037;-84
2021/03/23 08:48:52;;;;;;;74.20;41.80;;;8.10;86.60;;;;;;5018234;28;20030;-86
2021/03/23 08:51:21;;;;;;;82.80;41.10;;;8.10;86.60;;;;;;5019187;28;20025;-87
2021/03/23 08:53:51;;;;;;;77.40;39.00;;;8.00;87.10;;;;;;5036577;28;20482;-87
2021/03/23 08:56:44;;;;;;;72.10;37.73;;;8.00;87.50;;;;;;5018474;28;20026;-85
2021/03/23 08:59:35;;;;;;;69.40;34.87;;;7.90;87.80;;;;;;5036104;28;20075;-85
2021/03/23 09:02:08;;;;;;;73.27;34.90;;;7.90;88.20;;;;;;5018714;28;20037;-90
2021/03/23 09:04:42;;;;;;;68.53;34.43;;;7.80;88.70;;;;;;5019777;28;20025;-87
2021/03/23 09:07:07;;;;;;;69.50;34.00;;;7.80;88.80;;;;;;5038399;28;20037;-88
2021/03/23 09:09:46;;;;;;;66.17;36.23;;;7.80;89.20;;;;;;5020485;28;20032;-85
2021/03/23 09:12:30;;;;;;;70.70;34.93;;;7.80;89.30;;;;;;4995547;28;20029;-84
2021/03/23 09:15:17;;;;;;;71.32;35.25;;;7.80;89.70;;;;;;5037136;28;20041;-84
2021/03/23 09:17:55;;;;;;;61.57;32.00;;;7.80;89.70;;;;;;5036312;28;20390;-85
2021/03/23 09:23:23;;;;;;;66.80;34.40;;;7.90;90.00;;;;;;5035656;28;20038;-85
2021/03/23 09:25:53;;;;;;;67.73;33.80;;;7.80;90.10;;;;;;5017998;28;20119;-86
2021/03/23 09:28:31;;;;;;;76.40;35.20;;;7.80;90.20;;;;;;5017821;28;20060;-82
2021/03/23 09:31:07;;;;;;;70.13;33.93;;;7.90;90.30;;;;;;5035262;28;20029;-85
2021/03/23 09:33:43;;;;;;;66.63;32.87;;;8.00;90.30;;;;;;5018025;28;20053;-85
2021/03/23 09:36:10;;;;;;;68.70;34.80;;;8.00;90.20;;;;;;5033532;28;20025;-81
2021/03/23 09:38:53;;;;;;;63.73;32.67;;;8.10;90.20;;;;;;5035453;28;20026;-84
2021/03/23 09:41:26;;;;;;;63.67;31.33;;;8.20;90.10;;;;;;5017032;28;20018;-86
2021/03/23 09:44:13;;;;;;;68.40;31.67;;;8.30;90.00;;;;;;5035794;28;20022;-84
2021/03/23 09:46:46;;;;;;;65.73;30.77;;;8.30;90.00;;;;;;5017903;28;20045;-83
2021/03/23 09:49:21;;;;;;;58.43;31.43;;;8.40;89.80;;;;;;5021747;28;20053;-82
2021/03/23 09:52:22;;;;;;;60.70;29.67;;;8.50;89.60;;;;;;5017273;28;20036;-83
2021/03/23 09:55:00;;;;;;;59.93;30.10;;;8.60;89.20;;;;;;5017569;28;20053;-88
2021/03/23 09:57:29;;;;;;;62.33;32.03;;;8.50;89.00;;;;;;5035738;28;20470;-87
2021/03/23 09:59:57;;;;;;;58.27;28.20;;;8.50;89.00;;;;;;5014770;28;20025;-83
2021/03/23 10:02:33;;;;;;;59.43;30.63;;;8.60;89.10;;;;;;5014379;28;20034;-82
2021/03/23 10:05:35;;;;;;;62.00;30.57;;;8.60;88.90;;;;;;5015091;28;20040;-86
2021/03/23 10:08:18;;;;;;;63.37;29.77;;;8.60;88.80;;;;;;4976576;28;20633;-85
2021/03/23 10:10:44;;;;;;;58.20;30.77;;;8.70;88.60;;;;;;5010891;28;20037;-84
2021/03/23 10:13:26;;;;;;;51.77;29.47;;;8.70;88.50;;;;;;5036871;28;20389;-87
2021/03/23 10:15:59;;;;;;;60.10;32.47;;;8.70;88.40;;;;;;5017583;28;20030;-83
2021/03/23 10:18:41;;;;;;;57.37;32.27;;;8.80;88.20;;;;;;5024616;28;20386;-86
2021/03/23 10:21:12;;;;;;;52.57;28.57;;;8.80;88.10;;;;;;5030391;28;20053;-87
2021/03/23 10:23:50;;;;;;;51.73;27.20;;;8.90;88.20;;;;;;5042238;28;20041;-87
2021/03/23 10:26:17;;;;;;;59.47;30.37;;;8.90;87.40;;;;;;5042375;28;20068;-91
2021/03/23 10:28:54;;;;;;;55.47;30.13;;;9.00;87.60;;;;;;5001366;28;20060;-83
2021/03/23 10:31:35;;;;;;;56.43;30.67;;;9.20;87.60;;;;;;5013664;28;20470;-83
2021/03/23 10:34:15;;;;;;;62.17;31.87;;;9.20;87.60;;;;;;5013587;28;20029;-84
2021/03/23 10:36:51;;;;;;;57.37;31.27;;;9.30;86.90;;;;;;5016570;28;20026;-84
2021/03/23 10:39:36;;;;;;;59.30;30.53;;;9.30;86.30;;;;;;5016042;28;20025;-79
2021/03/23 10:42:28;;;;;;;63.83;33.60;;;9.30;85.70;;;;;;5016333;28;20030;-80
2021/03/23 10:45:27;;;;;;;56.63;30.97;;;9.30;85.70;;;;;;5016458;28;20033;-80
2021/03/23 10:48:10;;;;;;;62.43;31.23;;;9.30;85.90;;;;;;5034301;28;20049;-79
2021/03/23 10:50:37;;;;;;;58.83;31.37;;;9.40;85.30;;;;;;5015983;28;20120;-80
2021/03/23 10:53:19;;;;;;;61.50;32.10;;;9.40;85.30;;;;;;4999616;28;20036;-81
2021/03/23 10:55:47;;;;;;;62.63;32.17;;;9.40;85.20;;;;;;5015356;28;20033;-82
2021/03/23 10:58:25;;;;;;;64.80;35.17;;;9.50;85.10;;;;;;5012656;28;20053;-84
2021/03/23 11:01:09;;;;;;;65.40;34.67;;;9.50;84.90;;;;;;5033839;28;20080;-84
2021/03/23 11:03:37;;;;;;;62.03;32.83;;;9.60;85.00;;;;;;5016299;28;20025;-84
2021/03/23 11:06:03;;;;;;;62.43;33.20;;;9.60;84.80;;;;;;5015979;28;20091;-84
2021/03/23 11:08:30;;;;;;;60.87;32.47;;;9.60;84.60;;;;;;5033602;28;20025;-82
2021/03/23 11:10:58;;;;;;;55.13;30.97;;;9.60;84.50;;;;;;5033760;28;20537;-83
2021/03/23 11:13:25;;;;;;;64.73;33.03;;;9.70;84.50;;;;;;5015637;28;20053;-82
2021/03/23 11:15:53;;;;;;;58.20;32.13;;;9.80;84.50;;;;;;5015894;28;20029;-84
2021/03/23 11:18:31;;;;;;;54.40;30.23;;;9.80;84.90;;;;;;4983939;28;20030;-83
2021/03/23 11:21:00;;;;;;;54.40;30.30;;;10.00;83.90;;;;;;5015688;28;20029;-84
2021/03/23 11:23:38;;;;;;;60.00;32.33;;;10.00;83.60;;;;;;5015228;28;20466;-85
2021/03/23 11:26:06;;;;;;;56.20;32.70;;;10.10;83.30;;;;;;5031751;28;20128;-83
2021/03/23 11:28:32;;;;;;;57.20;32.00;;;10.10;82.70;;;;;;4998965;28;20030;-81
2021/03/23 11:31:01;;;;;;;59.23;33.07;;;10.00;82.60;;;;;;5031977;28;20087;-79
2021/03/23 11:33:28;;;;;;;57.03;32.77;;;10.00;83.00;;;;;;5015095;28;20079;-81
2021/03/23 11:35:54;;;;;;;56.73;32.00;;;10.00;82.90;;;;;;5033133;28;20428;-83
2021/03/23 11:38:20;;;;;;;60.73;32.80;;;10.00;82.50;;;;;;5015029;28;20112;-83
2021/03/23 11:40:46;;;;;;;63.50;34.00;;;10.00;82.40;;;;;;5015383;28;20033;-81
2021/03/23 11:43:32;;;;;;;61.27;34.13;;;10.00;82.50;;;;;;5032303;28;20158;-81
2021/03/23 11:46:03;;;;;;;65.07;35.37;;;10.00;82.50;;;;;;5031959;28;20037;-81
2021/03/23 11:48:34;;;;;;;56.47;33.33;;;10.10;82.50;;;;;;5032125;28;20059;-81
2021/03/23 11:51:01;;;;;;;62.97;37.03;;;10.00;82.40;;;;;;5014944;28;20026;-81
2021/03/23 11:53:27;;;;;;;61.33;34.20;;;10.00;82.50;;;;;;5014565;28;20116;-81
2021/03/23 11:55:53;;;;;;;68.90;36.33;;;10.00;82.40;;;;;;5013934;28;20484;-80
2021/03/23 11:58:20;;;;;;;58.13;33.57;;;10.00;82.20;;;;;;5014357;28;20078;-81
2021/03/23 12:00:45;;;;;;;63.57;34.70;;;10.00;82.30;;;;;;5032075;28;20025;-80
2021/03/23 12:03:12;;;;;;;57.90;33.10;;;10.10;82.40;;;;;;5032367;28;20040;-80
2021/03/23 12:05:40;;;;;;;64.70;34.23;;;10.10;82.00;;;;;;5014648;28;20029;-81
2021/03/23 12:08:19;;;;;;;60.40;34.23;;;10.10;81.70;;;;;;5011473;28;20026;-80
2021/03/23 12:11:22;;;;;;;65.70;34.77;;;10.20;82.10;;;;;;5014003;28;20477;-81
2021/03/23 12:14:13;;;;;;;63.57;33.90;;;10.10;81.80;;;;;;5014381;28;20108;-81
2021/03/23 12:17:03;;;;;;;67.33;34.27;;;10.20;82.10;;;;;;5016224;28;20113;-81
2021/03/23 12:19:41;;;;;;;61.57;33.07;;;10.30;81.50;;;;;;5034461;28;20029;-81
2021/03/23 12:22:09;;;;;;;58.33;32.80;;;10.30;81.50;;;;;;5018440;28;20021;-81
2021/03/23 12:24:35;;;;;;;62.37;32.83;;;10.30;81.40;;;;;;5018841;28;20026;-80
2021/03/23 12:27:00;;;;;;;58.53;32.23;;;10.40;81.00;;;;;;5017926;28;20087;-81
2021/03/23 12:29:26;;;;;;;59.30;33.87;;;10.40;81.20;;;;;;5035021;28;20029;-81
2021/03/23 12:31:52;;;;;;;64.03;33.37;;;10.40;81.40;;;;;;5015458;28;20459;-82
2021/03/23 12:34:18;;;;;;;58.03;32.00;;;10.40;81.20;;;;;;5001508;28;20030;-82
2021/03/23 12:36:44;;;;;;;59.07;32.00;;;10.50;81.20;;;;;;5032554;28;20053;-85
2021/03/23 12:39:10;;;;;;;58.80;32.90;;;10.60;80.20;;;;;;5034668;28;20482;-84
2021/03/23 12:41:38;;;;;;;63.40;34.37;;;10.60;79.80;;;;;;5036576;28;20034;-83
2021/03/23 12:44:07;;;;;;;65.10;34.77;;;10.50;80.00;;;;;;5018464;28;20026;-83
2021/03/23 12:46:34;;;;;;;59.73;34.13;;;10.50;80.00;;;;;;5001777;28;20041;-84
2021/03/23 12:49:00;;;;;;;56.80;31.00;;;10.50;80.60;;;;;;5018396;28;20347;-82
2021/03/23 12:51:39;;;;;;;59.90;31.50;;;10.50;80.70;;;;;;5018505;28;20030;-81
2021/03/23 12:54:11;;;;;;;58.53;30.30;;;10.70;80.90;;;;;;5017739;28;20104;-81
2021/03/23 12:56:37;;;;;;;61.77;33.17;;;10.70;80.60;;;;;;5035759;28;20032;-81
2021/03/23 12:59:04;;;;;;;66.90;34.77;;;10.70;80.70;;;;;;5034550;28;20030;-83
2021/03/23 13:01:29;;;;;;;60.60;33.20;;;10.60;80.70;;;;;;5018020;28;20053;-82
2021/03/23 13:03:56;;;;;;;61.10;33.47;;;10.60;80.90;;;;;;5010057;28;20060;-83
2021/03/23 13:06:27;;;;;;;69.90;35.93;;;10.50;81.10;;;;;;5015077;28;20045;-82
2021/03/23 13:08:54;;;;;;;66.87;34.90;;;10.40;81.30;;;;;;4998434;28;20064;-81
2021/03/23 13:11:25;;;;;;;63.87;34.63;;;10.40;81.70;;;;;;5014502;28;20037;-84